sensor_id;sensor_type;location;lat;lon;timestamp;pressure;altitude;pressure_sealevel;temperature;humidity
34237;BME280;20501;45.956;13.632;2023-03-20T00:03:44;101025.22;;;10.69;71.86
34237;BME280;20501;45.956;13.632;2023-03-20T00:06:23;101022.19;;;10.63;72.76
34237;BME280;20501;45.956;13.632;2023-03-20T00:08:51;101022.88;;;10.44;73.89
34237;BME280;20501;45.956;13.632;2023-03-20T00:16:35;101009.47;;;12.49;64.33
34237;BME280;20501;45.956;13.632;2023-03-20T00:19:01;101011.53;;;11.35;68.31
34237;BME280;20501;45.956;13.632;2023-03-20T00:21:27;101009.72;;;10.72;72.11
34237;BME280;20501;45.956;13.632;2023-03-20T00:23:53;101013.78;;;10.98;70.92
34237;BME280;20501;45.956;13.632;2023-03-20T00:26:30;101007.38;;;10.78;71.68
34237;BME280;20501;45.956;13.632;2023-03-20T00:28:57;101005.72;;;10.66;71.07
34237;BME280;20501;45.956;13.632;2023-03-20T00:31:31;101003.19;;;12.29;64.62
34237;BME280;20501;45.956;13.632;2023-03-20T00:33:59;101004.38;;;10.60;72.64
34237;BME280;20501;45.956;13.632;2023-03-20T00:36:25;101009.16;;;11.41;66.87
34237;BME280;20501;45.956;13.632;2023-03-20T00:38:51;101000.91;;;12.64;62.73
34237;BME280;20501;45.956;13.632;2023-03-20T00:41:28;100996.47;;;12.82;61.78
34237;BME280;20501;45.956;13.632;2023-03-20T00:43:59;100998.56;;;13.08;60.85
34237;BME280;20501;45.956;13.632;2023-03-20T00:46:25;100995.50;;;13.31;59.84
34237;BME280;20501;45.956;13.632;2023-03-20T00:48:51;100994.34;;;13.43;59.08
34237;BME280;20501;45.956;13.632;2023-03-20T00:51:17;100985.22;;;13.44;59.05
34237;BME280;20501;45.956;13.632;2023-03-20T00:53:43;100990.50;;;12.59;63.49
34237;BME280;20501;45.956;13.632;2023-03-20T00:58:46;100985.69;;;11.92;67.20
34237;BME280;20501;45.956;13.632;2023-03-20T01:01:12;100992.50;;;12.77;61.45
34237;BME280;20501;45.956;13.632;2023-03-20T01:03:38;100980.72;;;12.96;61.31
34237;BME280;20501;45.956;13.632;2023-03-20T01:06:04;100983.94;;;13.29;59.86
34237;BME280;20501;45.956;13.632;2023-03-20T01:08:29;100976.34;;;13.42;59.43
34237;BME280;20501;45.956;13.632;2023-03-20T01:10:57;100974.91;;;13.48;59.03
34237;BME280;20501;45.956;13.632;2023-03-20T01:15:49;100962.75;;;13.52;58.73
34237;BME280;20501;45.956;13.632;2023-03-20T01:18:16;100964.59;;;13.52;58.84
34237;BME280;20501;45.956;13.632;2023-03-20T01:20:42;100957.31;;;13.52;59.15
34237;BME280;20501;45.956;13.632;2023-03-20T01:23:08;100955.66;;;12.74;62.42
34237;BME280;20501;45.956;13.632;2023-03-20T01:25:34;100952.38;;;11.10;70.85
34237;BME280;20501;45.956;13.632;2023-03-20T01:28:03;100958.78;;;11.91;65.18
34237;BME280;20501;45.956;13.632;2023-03-20T01:30:36;100949.78;;;12.89;61.43
34237;BME280;20501;45.956;13.632;2023-03-20T01:33:09;100958.56;;;11.63;68.30
34237;BME280;20501;45.956;13.632;2023-03-20T01:35:37;100950.38;;;11.12;71.32
34237;BME280;20501;45.956;13.632;2023-03-20T01:38:22;100944.88;;;10.72;73.25
34237;BME280;20501;45.956;13.632;2023-03-20T01:40:53;100945.94;;;10.80;73.19
34237;BME280;20501;45.956;13.632;2023-03-20T01:43:22;100942.38;;;10.59;71.84
34237;BME280;20501;45.956;13.632;2023-03-20T01:45:57;100941.59;;;12.21;64.52
34237;BME280;20501;45.956;13.632;2023-03-20T01:48:31;100937.66;;;12.93;61.88
34237;BME280;20501;45.956;13.632;2023-03-20T01:51:00;100937.66;;;11.85;68.35
34237;BME280;20501;45.956;13.632;2023-03-20T01:53:26;100935.41;;;11.39;70.65
34237;BME280;20501;45.956;13.632;2023-03-20T01:55:55;100936.47;;;11.17;71.62
34237;BME280;20501;45.956;13.632;2023-03-20T01:58:30;100925.13;;;11.84;65.81
34237;BME280;20501;45.956;13.632;2023-03-20T02:00:58;100929.38;;;12.94;61.86
34237;BME280;20501;45.956;13.632;2023-03-20T02:03:24;100932.41;;;12.72;62.94
34237;BME280;20501;45.956;13.632;2023-03-20T02:05:50;100933.81;;;11.27;71.03
34237;BME280;20501;45.956;13.632;2023-03-20T02:08:21;100929.72;;;10.80;73.42
34237;BME280;20501;45.956;13.632;2023-03-20T02:10:48;100922.78;;;12.30;64.88
34237;BME280;20501;45.956;13.632;2023-03-20T02:13:15;100921.22;;;13.04;61.79
34237;BME280;20501;45.956;13.632;2023-03-20T02:18:28;100921.78;;;13.36;60.53
34237;BME280;20501;45.956;13.632;2023-03-20T02:40:29;100908.59;;;13.13;61.28
34237;BME280;20501;45.956;13.632;2023-03-20T02:45:47;100920.06;;;13.44;59.88
34237;BME280;20501;45.956;13.632;2023-03-20T02:48:38;100917.78;;;13.50;59.72
34237;BME280;20501;45.956;13.632;2023-03-20T02:51:30;100914.72;;;13.53;59.45
34237;BME280;20501;45.956;13.632;2023-03-20T02:54:33;100914.72;;;13.53;59.70
34237;BME280;20501;45.956;13.632;2023-03-20T02:57:08;100921.88;;;13.54;59.70
34237;BME280;20501;45.956;13.632;2023-03-20T03:02:22;100919.50;;;13.03;61.38
34237;BME280;20501;45.956;13.632;2023-03-20T03:04:54;100924.78;;;11.48;71.06
34237;BME280;20501;45.956;13.632;2023-03-20T03:07:23;100924.00;;;12.65;63.66
34237;BME280;20501;45.956;13.632;2023-03-20T03:10:18;100920.69;;;13.28;61.23
34237;BME280;20501;45.956;13.632;2023-03-20T03:12:48;100920.53;;;13.30;62.37
34237;BME280;20501;45.956;13.632;2023-03-20T03:15:35;100920.22;;;13.33;60.98
34237;BME280;20501;45.956;13.632;2023-03-20T03:18:04;100925.38;;;13.36;60.27
34237;BME280;20501;45.956;13.632;2023-03-20T03:20:37;100921.50;;;13.01;63.84
34237;BME280;20501;45.956;13.632;2023-03-20T03:23:04;100921.66;;;11.62;70.73
34237;BME280;20501;45.956;13.632;2023-03-20T03:25:34;100925.34;;;11.51;67.89
34237;BME280;20501;45.956;13.632;2023-03-20T03:28:13;100919.97;;;12.89;62.64
34237;BME280;20501;45.956;13.632;2023-03-20T03:30:45;100923.41;;;13.28;61.56
34237;BME280;20501;45.956;13.632;2023-03-20T03:35:36;100916.91;;;13.11;62.02
34237;BME280;20501;45.956;13.632;2023-03-20T03:38:03;100915.00;;;12.74;62.99
34237;BME280;20501;45.956;13.632;2023-03-20T03:40:44;100919.94;;;13.36;61.14
34237;BME280;20501;45.956;13.632;2023-03-20T03:43:27;100926.22;;;13.46;60.63
34237;BME280;20501;45.956;13.632;2023-03-20T03:46:04;100921.47;;;13.11;62.30
34237;BME280;20501;45.956;13.632;2023-03-20T03:48:36;100931.00;;;13.15;62.42
34237;BME280;20501;45.956;13.632;2023-03-20T03:51:12;100932.22;;;11.24;73.34
34237;BME280;20501;45.956;13.632;2023-03-20T03:53:45;100926.63;;;12.27;65.61
34237;BME280;20501;45.956;13.632;2023-03-20T03:56:15;100924.78;;;13.05;62.69
34237;BME280;20501;45.956;13.632;2023-03-20T03:58:48;100924.50;;;13.36;61.61
34237;BME280;20501;45.956;13.632;2023-03-20T04:01:16;100927.34;;;12.19;69.03
34237;BME280;20501;45.956;13.632;2023-03-20T04:03:49;100928.44;;;11.97;68.56
34237;BME280;20501;45.956;13.632;2023-03-20T04:06:16;100921.78;;;12.98;63.01
34237;BME280;20501;45.956;13.632;2023-03-20T04:08:42;100925.94;;;13.30;61.84
34237;BME280;20501;45.956;13.632;2023-03-20T04:11:14;100934.81;;;13.42;61.35
34237;BME280;20501;45.956;13.632;2023-03-20T04:13:40;100929.28;;;12.76;67.34
34237;BME280;20501;45.956;13.632;2023-03-20T04:16:07;100928.75;;;12.63;67.19
34237;BME280;20501;45.956;13.632;2023-03-20T04:18:35;100928.09;;;12.89;63.73
34237;BME280;20501;45.956;13.632;2023-03-20T04:21:00;100926.09;;;13.38;61.54
34237;BME280;20501;45.956;13.632;2023-03-20T04:23:26;100927.34;;;13.06;62.94
34237;BME280;20501;45.956;13.632;2023-03-20T04:25:51;100934.66;;;13.43;61.30
34237;BME280;20501;45.956;13.632;2023-03-20T04:28:17;100931.34;;;13.50;61.03
34237;BME280;20501;45.956;13.632;2023-03-20T04:30:43;100934.88;;;12.45;67.95
34237;BME280;20501;45.956;13.632;2023-03-20T04:33:12;100934.88;;;13.12;62.72
34237;BME280;20501;45.956;13.632;2023-03-20T04:35:37;100930.63;;;12.23;68.81
34237;BME280;20501;45.956;13.632;2023-03-20T04:38:03;100931.94;;;11.27;74.81
34237;BME280;20501;45.956;13.632;2023-03-20T04:40:28;100936.94;;;11.73;71.67
34237;BME280;20501;45.956;13.632;2023-03-20T04:42:55;100930.09;;;12.96;63.70
34237;BME280;20501;45.956;13.632;2023-03-20T04:45:21;100933.28;;;11.93;68.44
34237;BME280;20501;45.956;13.632;2023-03-20T04:47:46;100930.25;;;12.85;66.01
34237;BME280;20501;45.956;13.632;2023-03-20T04:50:11;100941.13;;;10.30;79.65
34237;BME280;20501;45.956;13.632;2023-03-20T04:52:38;100946.47;;;10.95;76.07
34237;BME280;20501;45.956;13.632;2023-03-20T04:55:04;100940.13;;;10.85;77.04
34237;BME280;20501;45.956;13.632;2023-03-20T04:57:29;100938.97;;;10.57;77.06
34237;BME280;20501;45.956;13.632;2023-03-20T04:59:56;100940.59;;;10.15;80.60
34237;BME280;20501;45.956;13.632;2023-03-20T05:02:21;100939.56;;;10.28;77.56
34237;BME280;20501;45.956;13.632;2023-03-20T05:04:47;100937.44;;;10.43;78.64
34237;BME280;20501;45.956;13.632;2023-03-20T05:07:12;100940.22;;;10.74;75.05
34237;BME280;20501;45.956;13.632;2023-03-20T05:09:37;100935.81;;;10.07;79.69
34237;BME280;20501;45.956;13.632;2023-03-20T05:12:03;100934.38;;;10.03;78.05
34237;BME280;20501;45.956;13.632;2023-03-20T05:14:29;100929.66;;;10.49;75.03
34237;BME280;20501;45.956;13.632;2023-03-20T05:16:54;100933.38;;;10.04;78.38
34237;BME280;20501;45.956;13.632;2023-03-20T05:19:20;100931.03;;;9.79;79.95
34237;BME280;20501;45.956;13.632;2023-03-20T05:21:45;100929.50;;;11.65;71.00
34237;BME280;20501;45.956;13.632;2023-03-20T05:24:11;100927.09;;;11.21;73.93
34237;BME280;20501;45.956;13.632;2023-03-20T05:26:36;100927.81;;;10.71;75.20
34237;BME280;20501;45.956;13.632;2023-03-20T05:29:02;100926.22;;;9.82;79.88
34237;BME280;20501;45.956;13.632;2023-03-20T05:31:27;100930.09;;;10.33;76.94
34237;BME280;20501;45.956;13.632;2023-03-20T05:33:53;100925.84;;;10.52;76.04
34237;BME280;20501;45.956;13.632;2023-03-20T05:36:18;100932.66;;;10.67;74.44
34237;BME280;20501;45.956;13.632;2023-03-20T05:38:44;100926.97;;;10.49;76.01
34237;BME280;20501;45.956;13.632;2023-03-20T05:41:10;100924.09;;;11.55;70.45
34237;BME280;20501;45.956;13.632;2023-03-20T05:43:35;100925.53;;;11.79;70.05
34237;BME280;20501;45.956;13.632;2023-03-20T05:46:01;100933.63;;;11.50;70.67
34237;BME280;20501;45.956;13.632;2023-03-20T05:48:26;100925.19;;;12.33;66.93
34237;BME280;20501;45.956;13.632;2023-03-20T05:50:52;100923.47;;;12.12;67.80
34237;BME280;20501;45.956;13.632;2023-03-20T05:53:17;100930.97;;;12.77;65.37
34237;BME280;20501;45.956;13.632;2023-03-20T05:55:43;100924.03;;;13.12;63.79
34237;BME280;20501;45.956;13.632;2023-03-20T05:58:11;100923.44;;;13.19;63.13
34237;BME280;20501;45.956;13.632;2023-03-20T06:00:37;100928.91;;;13.09;65.43
34237;BME280;20501;45.956;13.632;2023-03-20T06:03:03;100930.16;;;12.37;66.56
34237;BME280;20501;45.956;13.632;2023-03-20T06:05:31;100931.97;;;12.86;65.12
34237;BME280;20501;45.956;13.632;2023-03-20T06:07:57;100932.00;;;13.24;63.13
34237;BME280;20501;45.956;13.632;2023-03-20T06:10:23;100938.94;;;13.36;62.37
34237;BME280;20501;45.956;13.632;2023-03-20T06:12:48;100938.03;;;10.89;74.49
34237;BME280;20501;45.956;13.632;2023-03-20T06:15:14;100947.09;;;11.09;72.03
34237;BME280;20501;45.956;13.632;2023-03-20T06:17:39;100946.09;;;10.79;75.66
34237;BME280;20501;45.956;13.632;2023-03-20T06:20:05;100946.19;;;10.98;74.64
34237;BME280;20501;45.956;13.632;2023-03-20T06:22:31;100950.03;;;10.96;73.87
34237;BME280;20501;45.956;13.632;2023-03-20T06:24:57;100941.78;;;11.79;69.26
34237;BME280;20501;45.956;13.632;2023-03-20T06:27:23;100945.94;;;10.59;74.66
34237;BME280;20501;45.956;13.632;2023-03-20T06:29:48;100946.28;;;10.87;74.20
34237;BME280;20501;45.956;13.632;2023-03-20T06:32:13;100949.28;;;12.06;68.81
34237;BME280;20501;45.956;13.632;2023-03-20T06:34:41;100951.44;;;11.62;71.69
34237;BME280;20501;45.956;13.632;2023-03-20T06:37:06;100951.00;;;12.17;68.66
34237;BME280;20501;45.956;13.632;2023-03-20T06:39:32;100943.22;;;11.83;68.90
34237;BME280;20501;45.956;13.632;2023-03-20T06:41:57;100954.34;;;11.39;72.17
34237;BME280;20501;45.956;13.632;2023-03-20T06:44:23;100951.84;;;12.47;66.37
34237;BME280;20501;45.956;13.632;2023-03-20T06:46:49;100955.03;;;13.00;64.29
34237;BME280;20501;45.956;13.632;2023-03-20T06:49:14;100955.28;;;12.49;66.32
34237;BME280;20501;45.956;13.632;2023-03-20T06:51:41;100951.63;;;11.80;70.89
34237;BME280;20501;45.956;13.632;2023-03-20T06:54:06;100957.66;;;11.12;71.84
34237;BME280;20501;45.956;13.632;2023-03-20T06:56:31;100964.84;;;12.44;66.98
34237;BME280;20501;45.956;13.632;2023-03-20T06:58:57;100957.97;;;12.69;65.66
34237;BME280;20501;45.956;13.632;2023-03-20T07:01:22;100972.84;;;11.34;71.22
34237;BME280;20501;45.956;13.632;2023-03-20T07:03:48;100968.63;;;11.92;69.97
34237;BME280;20501;45.956;13.632;2023-03-20T07:06:15;100967.50;;;11.54;70.40
34237;BME280;20501;45.956;13.632;2023-03-20T07:08:42;100969.09;;;10.73;76.86
34237;BME280;20501;45.956;13.632;2023-03-20T07:11:07;100969.72;;;10.87;73.83
34237;BME280;20501;45.956;13.632;2023-03-20T07:13:34;100973.09;;;12.13;68.76
34237;BME280;20501;45.956;13.632;2023-03-20T07:16:00;100978.53;;;12.52;66.43
34237;BME280;20501;45.956;13.632;2023-03-20T07:18:26;100968.38;;;12.74;66.09
34237;BME280;20501;45.956;13.632;2023-03-20T07:20:52;100976.22;;;12.67;66.71
34237;BME280;20501;45.956;13.632;2023-03-20T07:23:18;100974.66;;;12.64;65.77
34237;BME280;20501;45.956;13.632;2023-03-20T07:25:44;100974.94;;;12.71;65.58
34237;BME280;20501;45.956;13.632;2023-03-20T07:28:10;100981.41;;;13.18;63.62
34237;BME280;20501;45.956;13.632;2023-03-20T07:30:36;100977.63;;;13.38;62.80
34237;BME280;20501;45.956;13.632;2023-03-20T07:33:01;100981.72;;;13.14;63.70
34237;BME280;20501;45.956;13.632;2023-03-20T07:35:27;100989.06;;;13.32;62.78
34237;BME280;20501;45.956;13.632;2023-03-20T07:37:53;100989.22;;;13.30;62.82
34237;BME280;20501;45.956;13.632;2023-03-20T07:40:18;100996.88;;;12.97;65.23
34237;BME280;20501;45.956;13.632;2023-03-20T07:42:44;100997.94;;;11.87;69.29
34237;BME280;20501;45.956;13.632;2023-03-20T07:45:11;101000.31;;;12.11;68.40
34237;BME280;20501;45.956;13.632;2023-03-20T07:47:38;101003.03;;;12.80;64.78
34237;BME280;20501;45.956;13.632;2023-03-20T07:50:04;101006.28;;;12.05;69.95
34237;BME280;20501;45.956;13.632;2023-03-20T07:52:29;100998.19;;;12.83;65.04
34237;BME280;20501;45.956;13.632;2023-03-20T07:54:55;101000.53;;;13.16;63.48
34237;BME280;20501;45.956;13.632;2023-03-20T07:57:21;101003.06;;;12.70;65.17
34237;BME280;20501;45.956;13.632;2023-03-20T07:59:46;100996.59;;;12.91;64.94
34237;BME280;20501;45.956;13.632;2023-03-20T08:02:14;101004.97;;;13.17;63.15
34237;BME280;20501;45.956;13.632;2023-03-20T08:04:40;100998.13;;;13.13;63.55
34237;BME280;20501;45.956;13.632;2023-03-20T08:07:05;101004.28;;;13.05;63.68
34237;BME280;20501;45.956;13.632;2023-03-20T08:09:31;101010.09;;;13.20;63.17
34237;BME280;20501;45.956;13.632;2023-03-20T08:11:56;101009.28;;;12.21;67.38
34237;BME280;20501;45.956;13.632;2023-03-20T08:14:22;101013.22;;;11.26;71.87
34237;BME280;20501;45.956;13.632;2023-03-20T08:16:47;101011.13;;;11.29;73.02
34237;BME280;20501;45.956;13.632;2023-03-20T08:19:13;101004.31;;;12.36;67.22
34237;BME280;20501;45.956;13.632;2023-03-20T08:21:38;101006.28;;;12.93;64.27
34237;BME280;20501;45.956;13.632;2023-03-20T08:24:05;101011.44;;;13.06;63.99
34237;BME280;20501;45.956;13.632;2023-03-20T08:26:30;101009.13;;;13.01;65.17
34237;BME280;20501;45.956;13.632;2023-03-20T08:28:56;101010.56;;;13.15;64.81
34237;BME280;20501;45.956;13.632;2023-03-20T08:31:22;101012.88;;;13.00;64.51
34237;BME280;20501;45.956;13.632;2023-03-20T08:33:47;101018.88;;;11.75;70.33
34237;BME280;20501;45.956;13.632;2023-03-20T08:36:14;101016.88;;;12.47;66.79
34237;BME280;20501;45.956;13.632;2023-03-20T08:38:40;101011.59;;;12.95;64.44
34237;BME280;20501;45.956;13.632;2023-03-20T08:41:06;101016.69;;;13.08;64.52
34237;BME280;20501;45.956;13.632;2023-03-20T08:43:32;101018.53;;;13.27;63.37
34237;BME280;20501;45.956;13.632;2023-03-20T08:45:57;101020.66;;;13.43;62.64
34237;BME280;20501;45.956;13.632;2023-03-20T08:48:23;101020.31;;;12.49;69.38
34237;BME280;20501;45.956;13.632;2023-03-20T08:50:48;101022.28;;;12.18;70.78
34237;BME280;20501;45.956;13.632;2023-03-20T08:53:13;101024.97;;;11.77;74.26
34237;BME280;20501;45.956;13.632;2023-03-20T08:55:39;101018.28;;;11.71;73.94
34237;BME280;20501;45.956;13.632;2023-03-20T08:58:04;101024.44;;;12.34;70.20
34237;BME280;20501;45.956;13.632;2023-03-20T09:00:30;101018.88;;;12.26;72.11
34237;BME280;20501;45.956;13.632;2023-03-20T09:02:56;101027.13;;;12.24;71.21
34237;BME280;20501;45.956;13.632;2023-03-20T09:05:21;101017.41;;;13.00;64.97
34237;BME280;20501;45.956;13.632;2023-03-20T09:07:47;101010.63;;;13.43;63.41
34237;BME280;20501;45.956;13.632;2023-03-20T09:10:12;101017.47;;;12.41;69.00
34237;BME280;20501;45.956;13.632;2023-03-20T09:12:38;101017.59;;;12.39;69.19
34237;BME280;20501;45.956;13.632;2023-03-20T09:15:04;101025.41;;;12.13;72.46
34237;BME280;20501;45.956;13.632;2023-03-20T09:17:31;101022.84;;;12.21;70.44
34237;BME280;20501;45.956;13.632;2023-03-20T09:19:56;101021.44;;;12.76;66.10
34237;BME280;20501;45.956;13.632;2023-03-20T09:22:22;101026.38;;;12.12;73.87
34237;BME280;20501;45.956;13.632;2023-03-20T09:24:48;101019.84;;;12.25;68.80
34237;BME280;20501;45.956;13.632;2023-03-20T09:27:13;101030.75;;;11.93;73.94
34237;BME280;20501;45.956;13.632;2023-03-20T09:29:42;101023.31;;;11.55;74.90
34237;BME280;20501;45.956;13.632;2023-03-20T09:32:12;101028.88;;;11.94;72.19
34237;BME280;20501;45.956;13.632;2023-03-20T09:34:38;101028.09;;;12.13;73.25
34237;BME280;20501;45.956;13.632;2023-03-20T09:37:03;101024.00;;;12.58;70.91
34237;BME280;20501;45.956;13.632;2023-03-20T09:39:29;101023.72;;;12.42;70.92
34237;BME280;20501;45.956;13.632;2023-03-20T09:41:57;101030.88;;;11.92;72.72
34237;BME280;20501;45.956;13.632;2023-03-20T09:47:15;101020.69;;;12.15;73.41
34237;BME280;20501;45.956;13.632;2023-03-20T09:52:28;101023.00;;;12.20;73.32
34237;BME280;20501;45.956;13.632;2023-03-20T09:54:57;101019.44;;;12.19;72.43
34237;BME280;20501;45.956;13.632;2023-03-20T09:57:33;101025.97;;;12.07;72.65
34237;BME280;20501;45.956;13.632;2023-03-20T10:00:10;101024.81;;;11.69;74.72
34237;BME280;20501;45.956;13.632;2023-03-20T10:02:44;101024.41;;;12.14;73.82
34237;BME280;20501;45.956;13.632;2023-03-20T10:05:20;101023.19;;;11.87;73.74
34237;BME280;20501;45.956;13.632;2023-03-20T10:07:47;101024.09;;;12.07;73.71
34237;BME280;20501;45.956;13.632;2023-03-20T10:10:13;101021.13;;;12.20;73.42
34237;BME280;20501;45.956;13.632;2023-03-20T10:13:19;101017.28;;;12.33;72.40
34237;BME280;20501;45.956;13.632;2023-03-20T10:15:53;101014.03;;;12.39;71.15
34237;BME280;20501;45.956;13.632;2023-03-20T10:18:25;101018.03;;;12.54;69.24
34237;BME280;20501;45.956;13.632;2023-03-20T10:26:08;101013.53;;;13.12;66.78
34237;BME280;20501;45.956;13.632;2023-03-20T10:28:51;101011.69;;;13.13;69.89
34237;BME280;20501;45.956;13.632;2023-03-20T10:34:24;101001.09;;;13.29;69.84
34237;BME280;20501;45.956;13.632;2023-03-20T10:42:12;100991.28;;;13.56;68.58
34237;BME280;20501;45.956;13.632;2023-03-20T10:44:48;100984.97;;;13.66;65.70
34237;BME280;20501;45.956;13.632;2023-03-20T10:47:18;100981.78;;;13.42;68.22
34237;BME280;20501;45.956;13.632;2023-03-20T10:49:52;100978.09;;;13.24;67.98
34237;BME280;20501;45.956;13.632;2023-03-20T10:52:25;100973.03;;;13.11;67.66
34237;BME280;20501;45.956;13.632;2023-03-20T10:54:59;100969.47;;;13.48;65.93
34237;BME280;20501;45.956;13.632;2023-03-20T10:57:28;100973.69;;;13.60;67.78
34237;BME280;20501;45.956;13.632;2023-03-20T10:59:57;100975.47;;;13.80;65.36
34237;BME280;20501;45.956;13.632;2023-03-20T11:02:26;100968.91;;;13.72;65.51
34237;BME280;20501;45.956;13.632;2023-03-20T11:04:52;100968.25;;;13.70;64.81
34237;BME280;20501;45.956;13.632;2023-03-20T11:07:32;100964.66;;;13.70;66.48
34237;BME280;20501;45.956;13.632;2023-03-20T11:12:38;100954.50;;;13.44;66.29
34237;BME280;20501;45.956;13.632;2023-03-20T11:15:26;100948.84;;;13.55;66.95
34237;BME280;20501;45.956;13.632;2023-03-20T11:18:04;100949.63;;;13.48;66.85
34237;BME280;20501;45.956;13.632;2023-03-20T11:20:51;100942.09;;;13.69;67.00
34237;BME280;20501;45.956;13.632;2023-03-20T11:23:19;100943.84;;;13.60;66.32
34237;BME280;20501;45.956;13.632;2023-03-20T11:26:04;100945.72;;;13.78;65.89
34237;BME280;20501;45.956;13.632;2023-03-20T11:28:36;100940.00;;;13.81;66.84
34237;BME280;20501;45.956;13.632;2023-03-20T11:31:30;100934.41;;;13.83;66.08
34237;BME280;20501;45.956;13.632;2023-03-20T11:36:32;100925.47;;;13.54;65.75
34237;BME280;20501;45.956;13.632;2023-03-20T11:39:13;100921.91;;;13.72;65.26
34237;BME280;20501;45.956;13.632;2023-03-20T11:41:58;100920.91;;;13.73;65.24
34237;BME280;20501;45.956;13.632;2023-03-20T11:44:30;100926.25;;;13.65;65.59
34237;BME280;20501;45.956;13.632;2023-03-20T11:47:02;100912.72;;;13.55;66.48
34237;BME280;20501;45.956;13.632;2023-03-20T11:49:29;100911.56;;;13.57;66.00
34237;BME280;20501;45.956;13.632;2023-03-20T11:51:59;100906.94;;;13.68;66.89
34237;BME280;20501;45.956;13.632;2023-03-20T11:54:27;100903.63;;;13.46;66.72
34237;BME280;20501;45.956;13.632;2023-03-20T11:56:55;100904.13;;;13.59;66.36
34237;BME280;20501;45.956;13.632;2023-03-20T11:59:21;100901.97;;;13.63;67.22
34237;BME280;20501;45.956;13.632;2023-03-20T12:01:52;100909.19;;;13.72;67.78
34237;BME280;20501;45.956;13.632;2023-03-20T12:04:19;100903.06;;;13.88;65.85
34237;BME280;20501;45.956;13.632;2023-03-20T12:09:51;100900.50;;;13.69;67.32
34237;BME280;20501;45.956;13.632;2023-03-20T12:15:38;100895.22;;;13.67;66.26
34237;BME280;20501;45.956;13.632;2023-03-20T12:21:15;100889.81;;;13.85;66.41
34237;BME280;20501;45.956;13.632;2023-03-20T12:23:45;100887.47;;;13.72;66.44
34237;BME280;20501;45.956;13.632;2023-03-20T12:26:14;100889.25;;;13.64;67.18
34237;BME280;20501;45.956;13.632;2023-03-20T12:31:50;100884.53;;;13.84;65.07
34237;BME280;20501;45.956;13.632;2023-03-20T12:34:22;100879.09;;;13.66;66.29
34237;BME280;20501;45.956;13.632;2023-03-20T12:36:50;100883.97;;;13.62;66.76
34237;BME280;20501;45.956;13.632;2023-03-20T12:39:22;100884.78;;;13.90;64.57
34237;BME280;20501;45.956;13.632;2023-03-20T12:42:35;100888.56;;;13.61;66.38
34237;BME280;20501;45.956;13.632;2023-03-20T12:50:20;100877.25;;;13.84;64.50
34237;BME280;20501;45.956;13.632;2023-03-20T12:56:06;100875.34;;;13.67;64.53
34237;BME280;20501;45.956;13.632;2023-03-20T12:58:41;100878.75;;;13.51;64.67
34237;BME280;20501;45.956;13.632;2023-03-20T13:07:02;100878.31;;;13.73;63.95
34237;BME280;20501;45.956;13.632;2023-03-20T13:09:43;100872.75;;;13.75;63.87
34237;BME280;20501;45.956;13.632;2023-03-20T13:21:00;100860.56;;;13.79;64.23
34237;BME280;20501;45.956;13.632;2023-03-20T13:38:00;100845.69;;;13.83;65.25
34237;BME280;20501;45.956;13.632;2023-03-20T13:40:29;100846.22;;;13.87;65.48
34237;BME280;20501;45.956;13.632;2023-03-20T13:45:34;100840.00;;;13.95;65.09
34237;BME280;20501;45.956;13.632;2023-03-20T13:53:43;100838.53;;;14.00;65.50
34237;BME280;20501;45.956;13.632;2023-03-20T14:01:46;100830.56;;;13.81;66.78
34237;BME280;20501;45.956;13.632;2023-03-20T14:04:15;100832.88;;;13.75;66.29
34237;BME280;20501;45.956;13.632;2023-03-20T14:09:35;100822.25;;;13.82;66.22
34237;BME280;20501;45.956;13.632;2023-03-20T14:12:07;100821.69;;;13.97;66.02
34237;BME280;20501;45.956;13.632;2023-03-20T14:19:40;100820.06;;;14.04;65.22
34237;BME280;20501;45.956;13.632;2023-03-20T14:22:13;100825.00;;;14.08;65.89
34237;BME280;20501;45.956;13.632;2023-03-20T14:24:45;100836.41;;;13.94;65.42
34237;BME280;20501;45.956;13.632;2023-03-20T14:27:17;100831.63;;;14.06;63.82
34237;BME280;20501;45.956;13.632;2023-03-20T14:29:44;100828.78;;;14.16;63.21
34237;BME280;20501;45.956;13.632;2023-03-20T14:34:57;100827.44;;;14.12;62.86
34237;BME280;20501;45.956;13.632;2023-03-20T14:39:53;100826.03;;;13.89;66.07
34237;BME280;20501;45.956;13.632;2023-03-20T14:42:45;100817.63;;;14.01;65.97
34237;BME280;20501;45.956;13.632;2023-03-20T14:50:32;100822.06;;;14.02;65.70
34237;BME280;20501;45.956;13.632;2023-03-20T14:57:51;100828.59;;;13.91;66.38
34237;BME280;20501;45.956;13.632;2023-03-20T15:00:22;100820.53;;;13.99;65.80
34237;BME280;20501;45.956;13.632;2023-03-20T15:03:15;100830.47;;;13.90;66.21
34237;BME280;20501;45.956;13.632;2023-03-20T15:05:42;100839.84;;;13.96;65.17
34237;BME280;20501;45.956;13.632;2023-03-20T15:10:42;100843.03;;;14.09;65.87
34237;BME280;20501;45.956;13.632;2023-03-20T15:13:08;100844.50;;;14.04;64.20
34237;BME280;20501;45.956;13.632;2023-03-20T15:15:35;100840.53;;;13.80;66.82
34237;BME280;20501;45.956;13.632;2023-03-20T15:18:09;100839.84;;;13.78;65.80
34237;BME280;20501;45.956;13.632;2023-03-20T15:20:35;100847.16;;;13.96;64.53
34237;BME280;20501;45.956;13.632;2023-03-20T15:23:01;100842.78;;;13.85;66.09
34237;BME280;20501;45.956;13.632;2023-03-20T15:25:32;100847.38;;;14.02;64.75
34237;BME280;20501;45.956;13.632;2023-03-20T15:28:00;100851.94;;;13.84;66.53